Time;durP1;ratioP1;P1;durP2;ratioP2;P2;SDS_P1;SDS_P2;PMS_P1;PMS_P2;Temp;Humidity;BMP_temperature;BMP_pressure;BME280_temperature;BME280_humidity;BME280_pressure;Samples;Min_cycle;Max_cycle;Signal;HPM_P1;HPM_P2
2024/01/11 00:02:14;;;;;;;21.80;7.85;;;;;;;;;;5095566;28;20027;-27
2024/01/11 00:04:40;;;;;;;20.60;7.97;;;;;;;;;;5096008;28;20105;-27
2024/01/11 00:07:05;;;;;;;21.70;9.00;;;;;;;;;;5096404;28;20016;-27
2024/01/11 00:09:30;;;;;;;19.83;8.18;;;;;;;;;;5096530;28;20039;-26
2024/01/11 00:11:55;;;;;;;19.65;8.25;;;;;;;;;;5096001;28;20379;-27
2024/01/11 00:14:20;;;;;;;20.17;8.40;;;;;;;;;;5095990;28;20027;-27
2024/01/11 00:16:46;;;;;;;21.20;8.55;;;;;;;;;;5095974;28;20020;-27
2024/01/11 00:19:11;;;;;;;21.00;9.07;;;;;;;;;;5095875;28;20012;-26
2024/01/11 00:21:36;;;;;;;20.33;8.55;;;;;;;;;;5095884;28;20047;-26
2024/01/11 00:24:01;;;;;;;17.58;7.82;;;;;;;;;;5096421;28;20107;-27
2024/01/11 00:26:26;;;;;;;21.75;7.90;;;;;;;;;;5095734;28;20024;-26
2024/01/11 00:28:51;;;;;;;18.60;7.80;;;;;;;;;;5095694;28;20024;-26
2024/01/11 00:31:17;;;;;;;24.27;8.65;;;;;;;;;;5095760;28;20026;-27
2024/01/11 00:33:42;;;;;;;23.30;8.25;;;;;;;;;;5096061;28;20077;-26
2024/01/11 00:36:07;;;;;;;21.73;8.98;;;;;;;;;;5095584;28;20471;-26
2024/01/11 00:38:32;;;;;;;21.23;9.15;;;;;;;;;;5096281;28;20060;-26
2024/01/11 00:40:57;;;;;;;19.50;8.82;;;;;;;;;;5095507;28;20046;-26
2024/01/11 00:43:23;;;;;;;20.05;8.10;;;;;;;;;;5095978;28;20064;-26
2024/01/11 00:45:48;;;;;;;21.08;8.77;;;;;;;;;;5095418;28;20477;-26
2024/01/11 00:48:13;;;;;;;20.40;8.73;;;;;;;;;;5095306;28;20035;-27
2024/01/11 00:50:38;;;;;;;20.17;8.27;;;;;;;;;;5095633;28;20024;-27
2024/01/11 00:53:03;;;;;;;21.30;8.60;;;;;;;;;;5095103;28;20492;-26
2024/01/11 00:55:29;;;;;;;17.98;7.88;;;;;;;;;;5095468;28;20020;-26
2024/01/11 00:57:54;;;;;;;22.85;8.85;;;;;;;;;;5094986;28;20430;-26
2024/01/11 01:00:19;;;;;;;23.00;9.15;;;;;;;;;;5076957;28;20356;-26
2024/01/11 01:02:44;;;;;;;20.40;9.27;;;;;;;;;;5094905;28;20050;-27
2024/01/11 01:05:10;;;;;;;21.65;9.05;;;;;;;;;;5094493;28;20093;-27
2024/01/11 01:07:35;;;;;;;20.55;8.55;;;;;;;;;;5095019;28;20055;-27
2024/01/11 01:10:00;;;;;;;24.75;9.07;;;;;;;;;;5095524;28;20042;-27
2024/01/11 01:12:25;;;;;;;21.50;8.77;;;;;;;;;;5094760;28;20027;-27
2024/01/11 01:14:51;;;;;;;20.83;9.02;;;;;;;;;;5095153;28;20047;-27
2024/01/11 01:17:16;;;;;;;23.90;9.32;;;;;;;;;;5095412;28;20351;-27
2024/01/11 01:19:41;;;;;;;25.10;8.77;;;;;;;;;;5094804;28;20470;-27
2024/01/11 01:22:06;;;;;;;21.23;8.68;;;;;;;;;;5095281;28;20023;-27
2024/01/11 01:24:32;;;;;;;22.98;9.57;;;;;;;;;;5094701;28;20031;-27
2024/01/11 01:26:57;;;;;;;23.55;9.23;;;;;;;;;;5094606;28;20024;-27
2024/01/11 01:29:22;;;;;;;19.42;8.88;;;;;;;;;;5093348;28;20024;-27
2024/01/11 01:31:47;;;;;;;20.98;8.98;;;;;;;;;;5094218;28;20042;-27
2024/01/11 01:34:14;;;;;;;26.80;9.70;;;;;;;;;;5094941;28;20023;-27
2024/01/11 01:36:40;;;;;;;24.27;9.70;;;;;;;;;;5094767;28;20166;-27
2024/01/11 01:39:05;;;;;;;26.48;9.35;;;;;;;;;;5094664;28;20046;-27
2024/01/11 01:41:30;;;;;;;23.45;9.48;;;;;;;;;;5094382;28;20302;-27
2024/01/11 01:43:55;;;;;;;19.00;8.70;;;;;;;;;;5094254;28;20016;-27
2024/01/11 01:46:23;;;;;;;24.83;9.63;;;;;;;;;;5094799;28;20032;-27
2024/01/11 01:48:48;;;;;;;28.50;9.82;;;;;;;;;;5094525;28;20368;-27
2024/01/11 01:51:14;;;;;;;21.92;9.60;;;;;;;;;;5094459;28;20034;-27
2024/01/11 01:53:39;;;;;;;21.73;10.27;;;;;;;;;;5075823;28;20016;-27
2024/01/11 01:56:05;;;;;;;22.45;9.63;;;;;;;;;;5094553;28;20462;-27
2024/01/11 01:58:31;;;;;;;25.50;10.63;;;;;;;;;;5094014;28;20016;-27
2024/01/11 02:00:57;;;;;;;24.02;10.00;;;;;;;;;;5094532;28;20027;-27
2024/01/11 02:03:23;;;;;;;23.33;9.88;;;;;;;;;;5094371;28;20478;-27
2024/01/11 02:05:48;;;;;;;23.38;9.85;;;;;;;;;;5093700;28;20052;-27
2024/01/11 02:08:15;;;;;;;23.75;10.48;;;;;;;;;;5094147;28;20020;-27
2024/01/11 02:10:40;;;;;;;24.40;9.93;;;;;;;;;;5075747;28;20049;-27
2024/01/11 02:13:05;;;;;;;25.02;10.00;;;;;;;;;;5093949;28;20347;-27
2024/01/11 02:15:31;;;;;;;23.83;10.20;;;;;;;;;;5094301;28;20089;-27
2024/01/11 02:17:56;;;;;;;23.90;10.40;;;;;;;;;;5093637;28;20012;-27
2024/01/11 02:20:22;;;;;;;24.88;10.13;;;;;;;;;;5094291;28;20023;-27
2024/01/11 02:22:49;;;;;;;24.90;10.77;;;;;;;;;;5093604;28;20463;-27
2024/01/11 02:25:15;;;;;;;24.65;11.00;;;;;;;;;;5093824;28;20016;-27
2024/01/11 02:27:47;;;;;;;24.70;10.52;;;;;;;;;;5093918;28;20020;-27
2024/01/11 02:30:12;;;;;;;25.80;11.40;;;;;;;;;;5093630;28;20016;-27
2024/01/11 02:32:38;;;;;;;26.70;11.38;;;;;;;;;;5093406;28;20273;-27
2024/01/11 02:35:03;;;;;;;25.95;11.45;;;;;;;;;;5093787;28;20510;-27
2024/01/11 02:37:29;;;;;;;26.52;11.25;;;;;;;;;;5075709;28;20016;-27
2024/01/11 02:39:54;;;;;;;29.70;11.88;;;;;;;;;;5093746;28;20097;-27
2024/01/11 02:42:19;;;;;;;26.00;11.75;;;;;;;;;;5093366;28;20133;-27
2024/01/11 02:44:45;;;;;;;29.40;11.75;;;;;;;;;;5093917;28;20066;-27
2024/01/11 02:47:10;;;;;;;24.02;10.77;;;;;;;;;;5093655;28;20028;-27
2024/01/11 02:49:35;;;;;;;29.25;11.73;;;;;;;;;;5093620;28;20348;-27
2024/01/11 02:52:00;;;;;;;29.40;12.10;;;;;;;;;;5093292;28;20056;-27
2024/01/11 02:54:25;;;;;;;27.92;12.30;;;;;;;;;;5093500;28;20020;-27
2024/01/11 02:56:50;;;;;;;29.67;12.65;;;;;;;;;;5093357;28;20008;-27
2024/01/11 02:59:16;;;;;;;27.05;11.73;;;;;;;;;;5093854;28;20039;-27
2024/01/11 03:01:41;;;;;;;26.10;11.05;;;;;;;;;;5093477;28;20099;-27
2024/01/11 03:04:06;;;;;;;24.08;11.27;;;;;;;;;;5093092;28;20051;-27
2024/01/11 03:06:31;;;;;;;28.45;12.70;;;;;;;;;;5093449;28;20028;-27
2024/01/11 03:08:56;;;;;;;25.73;11.95;;;;;;;;;;5093232;28;20020;-27
2024/01/11 03:11:22;;;;;;;25.33;11.95;;;;;;;;;;5093602;28;20020;-27
2024/01/11 03:13:47;;;;;;;30.15;12.40;;;;;;;;;;5093076;28;20146;-27
2024/01/11 03:16:12;;;;;;;32.40;12.77;;;;;;;;;;5093457;28;20016;-27
2024/01/11 03:18:37;;;;;;;30.95;12.57;;;;;;;;;;5092998;28;20129;-27
2024/01/11 03:21:03;;;;;;;30.52;13.43;;;;;;;;;;5093824;28;20324;-27
2024/01/11 03:23:28;;;;;;;28.77;11.80;;;;;;;;;;5092997;28;20016;-27
2024/01/11 03:25:53;;;;;;;34.17;13.50;;;;;;;;;;5092891;28;20077;-27
2024/01/11 03:28:18;;;;;;;32.83;13.25;;;;;;;;;;5096581;28;20020;-27
2024/01/11 03:30:43;;;;;;;28.85;12.77;;;;;;;;;;5097406;28;20055;-27
2024/01/11 03:33:09;;;;;;;30.23;13.65;;;;;;;;;;5096819;28;20402;-27
2024/01/11 03:35:34;;;;;;;39.65;14.35;;;;;;;;;;5096784;28;20020;-27
2024/01/11 03:37:59;;;;;;;34.08;14.10;;;;;;;;;;5096705;28;20020;-27
2024/01/11 03:40:24;;;;;;;36.95;14.50;;;;;;;;;;5097266;28;20103;-27
2024/01/11 03:42:49;;;;;;;32.30;13.23;;;;;;;;;;5097257;28;20020;-27
2024/01/11 03:45:18;;;;;;;31.63;13.70;;;;;;;;;;5097137;28;20031;-27
2024/01/11 03:47:43;;;;;;;34.70;14.65;;;;;;;;;;5096870;28;20580;-27
2024/01/11 03:50:08;;;;;;;34.38;13.98;;;;;;;;;;5096975;28;20030;-26
2024/01/11 03:52:33;;;;;;;35.30;14.55;;;;;;;;;;5096654;28;20020;-27
2024/01/11 03:54:59;;;;;;;39.22;15.13;;;;;;;;;;5096434;28;20016;-27
2024/01/11 03:57:24;;;;;;;34.85;14.50;;;;;;;;;;5096318;28;20387;-27
2024/01/11 03:59:49;;;;;;;34.33;14.23;;;;;;;;;;5096422;28;20016;-27
2024/01/11 04:02:15;;;;;;;36.85;15.73;;;;;;;;;;5096524;28;20115;-27
2024/01/11 04:04:41;;;;;;;34.20;14.38;;;;;;;;;;5095948;28;20056;-28
2024/01/11 04:07:06;;;;;;;33.13;15.05;;;;;;;;;;5096391;28;20495;-27
2024/01/11 04:09:31;;;;;;;34.00;15.23;;;;;;;;;;5095997;28;20020;-27
2024/01/11 04:11:56;;;;;;;38.20;15.68;;;;;;;;;;5096312;28;20027;-27
2024/01/11 04:14:21;;;;;;;34.60;14.85;;;;;;;;;;5095930;28;20082;-27
2024/01/11 04:16:47;;;;;;;38.53;16.52;;;;;;;;;;5095943;28;20023;-27
2024/01/11 04:19:12;;;;;;;35.50;15.93;;;;;;;;;;5096483;28;20013;-27
2024/01/11 04:21:40;;;;;;;36.40;15.73;;;;;;;;;;5096216;28;20042;-27
2024/01/11 04:24:06;;;;;;;36.80;15.57;;;;;;;;;;5096032;28;20020;-27
2024/01/11 04:26:31;;;;;;;40.50;16.40;;;;;;;;;;5095994;28;20012;-27
2024/01/11 04:28:59;;;;;;;36.55;15.93;;;;;;;;;;5095719;28;20140;-27
2024/01/11 04:31:24;;;;;;;36.03;16.25;;;;;;;;;;5095653;28;20051;-28
2024/01/11 04:33:49;;;;;;;38.03;16.35;;;;;;;;;;5096098;28;20056;-27
2024/01/11 04:36:15;;;;;;;41.97;16.33;;;;;;;;;;5095610;28;20448;-27
2024/01/11 04:38:40;;;;;;;41.78;16.65;;;;;;;;;;5094331;28;20012;-27
2024/01/11 04:41:09;;;;;;;37.63;15.93;;;;;;;;;;5095374;28;20016;-27
2024/01/11 04:43:36;;;;;;;39.42;16.73;;;;;;;;;;5095722;28;20024;-27
2024/01/11 04:46:02;;;;;;;41.10;16.63;;;;;;;;;;5095657;28;20472;-27
2024/01/11 04:48:27;;;;;;;39.08;16.48;;;;;;;;;;5095383;28;20073;-27
2024/01/11 04:50:52;;;;;;;38.17;16.48;;;;;;;;;;5096470;28;20031;-27
2024/01/11 04:53:17;;;;;;;36.75;15.80;;;;;;;;;;5095239;28;20062;-27
2024/01/11 04:55:42;;;;;;;40.45;17.02;;;;;;;;;;5095306;28;20367;-32
2024/01/11 04:58:07;;;;;;;39.53;16.80;;;;;;;;;;5095174;28;20455;-27
2024/01/11 05:00:32;;;;;;;39.63;17.05;;;;;;;;;;5095781;28;20027;-27
2024/01/11 05:02:58;;;;;;;42.60;17.05;;;;;;;;;;5095042;28;20027;-27
2024/01/11 05:05:23;;;;;;;41.30;16.55;;;;;;;;;;5094908;28;20055;-28
2024/01/11 05:07:48;;;;;;;40.60;17.65;;;;;;;;;;5095019;28;20137;-27
2024/01/11 05:10:13;;;;;;;45.10;17.10;;;;;;;;;;5094993;28;20024;-27
2024/01/11 05:12:38;;;;;;;39.85;17.20;;;;;;;;;;5094985;28;20020;-27
2024/01/11 05:15:06;;;;;;;38.22;17.38;;;;;;;;;;5095113;28;20016;-27
2024/01/11 05:17:31;;;;;;;38.92;16.98;;;;;;;;;;5094781;28;20015;-27
2024/01/11 05:19:56;;;;;;;41.28;17.42;;;;;;;;;;5095000;28;20447;-27
2024/01/11 05:22:22;;;;;;;41.47;16.80;;;;;;;;;;5095022;28;20091;-27
2024/01/11 05:24:47;;;;;;;38.97;16.50;;;;;;;;;;5094895;28;20383;-27
2024/01/11 05:27:12;;;;;;;40.55;17.67;;;;;;;;;;5094677;28;20387;-27
2024/01/11 05:29:37;;;;;;;40.95;17.58;;;;;;;;;;5095110;28;20024;-27
2024/01/11 05:32:03;;;;;;;38.42;17.27;;;;;;;;;;5094515;28;20530;-27
2024/01/11 05:34:28;;;;;;;37.78;17.00;;;;;;;;;;5094949;28;20019;-27
2024/01/11 05:36:53;;;;;;;40.00;17.60;;;;;;;;;;5094775;28;20478;-27
2024/01/11 05:39:18;;;;;;;38.80;17.30;;;;;;;;;;5094883;28;20241;-27
2024/01/11 05:41:44;;;;;;;40.28;16.77;;;;;;;;;;5094471;28;20020;-27
2024/01/11 05:44:10;;;;;;;43.97;17.98;;;;;;;;;;5094537;28;20058;-27
2024/01/11 05:46:35;;;;;;;47.78;18.60;;;;;;;;;;5094270;28;20020;-27
2024/01/11 05:49:00;;;;;;;42.67;18.35;;;;;;;;;;5094518;28;20020;-27
2024/01/11 05:51:26;;;;;;;46.10;18.27;;;;;;;;;;5093996;28;20020;-27
2024/01/11 05:53:51;;;;;;;42.67;17.83;;;;;;;;;;5094311;28;20355;-27
2024/01/11 05:56:18;;;;;;;39.85;18.35;;;;;;;;;;5094525;28;20095;-27
2024/01/11 05:58:44;;;;;;;42.92;18.00;;;;;;;;;;5094284;28;20039;-27
2024/01/11 06:01:09;;;;;;;43.00;17.30;;;;;;;;;;5094242;28;20031;-27
2024/01/11 06:03:34;;;;;;;42.65;18.05;;;;;;;;;;5094060;28;20039;-27
2024/01/11 06:06:00;;;;;;;38.85;17.25;;;;;;;;;;5094246;28;20047;-27
2024/01/11 06:08:25;;;;;;;41.65;18.00;;;;;;;;;;5094179;28;20031;-27
2024/01/11 06:10:50;;;;;;;44.42;17.38;;;;;;;;;;5093847;28;20379;-27
2024/01/11 06:13:16;;;;;;;40.78;18.17;;;;;;;;;;5093720;28;20024;-27
2024/01/11 06:15:41;;;;;;;43.75;18.33;;;;;;;;;;5093773;28;20055;-27
2024/01/11 06:18:06;;;;;;;45.10;18.02;;;;;;;;;;5094021;28;20020;-27
2024/01/11 06:20:31;;;;;;;38.70;16.85;;;;;;;;;;5093779;28;20016;-27
2024/01/11 06:22:56;;;;;;;42.95;17.35;;;;;;;;;;5093715;28;20065;-27
2024/01/11 06:25:21;;;;;;;45.03;18.57;;;;;;;;;;5093673;28;20016;-27
2024/01/11 06:27:47;;;;;;;39.05;17.98;;;;;;;;;;5093896;28;20254;-27
2024/01/11 06:30:12;;;;;;;40.60;17.83;;;;;;;;;;5093779;28;20016;-27
2024/01/11 06:32:37;;;;;;;41.47;17.55;;;;;;;;;;5093388;28;20028;-27
2024/01/11 06:35:03;;;;;;;42.35;17.73;;;;;;;;;;5093509;28;20019;-27
2024/01/11 06:37:28;;;;;;;38.70;17.40;;;;;;;;;;5093762;28;20016;-27
2024/01/11 06:39:53;;;;;;;41.40;17.55;;;;;;;;;;5093947;28;20016;-27
2024/01/11 06:42:18;;;;;;;43.38;18.73;;;;;;;;;;5093995;28;20016;-27
2024/01/11 06:44:43;;;;;;;43.05;19.98;;;;;;;;;;5075208;28;20032;-27
2024/01/11 06:47:08;;;;;;;45.30;19.77;;;;;;;;;;5093717;28;20095;-27
2024/01/11 06:49:34;;;;;;;45.63;19.20;;;;;;;;;;5093410;28;20024;-27
2024/01/11 06:51:59;;;;;;;47.15;18.33;;;;;;;;;;5093197;28;20096;-27
2024/01/11 06:54:24;;;;;;;41.45;17.52;;;;;;;;;;5093221;28;20099;-27
2024/01/11 06:56:49;;;;;;;42.80;18.05;;;;;;;;;;5093199;28;20020;-27
2024/01/11 06:59:14;;;;;;;44.65;19.02;;;;;;;;;;5093210;28;20455;-27
2024/01/11 07:01:39;;;;;;;45.90;18.25;;;;;;;;;;5094315;28;20103;-27
2024/01/11 07:04:05;;;;;;;43.90;18.40;;;;;;;;;;5096378;28;20479;-27
2024/01/11 07:06:30;;;;;;;45.65;18.88;;;;;;;;;;5097628;28;20024;-27
2024/01/11 07:08:55;;;;;;;41.42;17.45;;;;;;;;;;5097341;28;20102;-27
2024/01/11 07:11:20;;;;;;;42.75;18.02;;;;;;;;;;5097112;28;20027;-27
2024/01/11 07:13:46;;;;;;;47.10;18.75;;;;;;;;;;5096031;28;20024;-27
2024/01/11 07:16:11;;;;;;;44.90;19.10;;;;;;;;;;5097105;28;20142;-26
2024/01/11 07:18:36;;;;;;;39.90;17.52;;;;;;;;;;5096637;28;20027;-26
2024/01/11 07:21:02;;;;;;;42.63;18.98;;;;;;;;;;5095081;28;20474;-27
2024/01/11 07:23:27;;;;;;;41.60;17.73;;;;;;;;;;5094990;28;20024;-26
2024/01/11 07:25:52;;;;;;;40.20;18.17;;;;;;;;;;5094937;28;20039;-27
2024/01/11 07:28:19;;;;;;;46.28;18.73;;;;;;;;;;5094979;28;20100;-27
2024/01/11 07:30:44;;;;;;;41.88;17.80;;;;;;;;;;5095071;28;20074;-27
2024/01/11 07:33:10;;;;;;;41.50;16.85;;;;;;;;;;5094700;28;20459;-27
2024/01/11 07:35:35;;;;;;;44.65;19.30;;;;;;;;;;5096611;28;20008;-27
2024/01/11 07:38:00;;;;;;;41.80;17.90;;;;;;;;;;5096669;28;20024;-27
2024/01/11 07:40:26;;;;;;;42.20;18.20;;;;;;;;;;5096960;28;20044;-27
2024/01/11 07:42:51;;;;;;;46.15;18.80;;;;;;;;;;5096615;28;20024;-26
2024/01/11 07:45:16;;;;;;;42.65;18.25;;;;;;;;;;5096661;28;20059;-26
2024/01/11 07:47:42;;;;;;;47.50;19.65;;;;;;;;;;5096901;28;20027;-26
2024/01/11 07:50:09;;;;;;;51.38;21.30;;;;;;;;;;5096855;28;20016;-26
2024/01/11 07:52:34;;;;;;;57.97;21.13;;;;;;;;;;5096242;28;20052;-27
2024/01/11 07:55:06;;;;;;;55.75;19.88;;;;;;;;;;5096879;28;20059;-27
2024/01/11 07:57:31;;;;;;;50.95;21.58;;;;;;;;;;5096230;28;20016;-27
2024/01/11 07:59:59;;;;;;;51.50;20.80;;;;;;;;;;5096790;28;20064;-27
2024/01/11 08:02:24;;;;;;;44.60;19.63;;;;;;;;;;5096412;28;20031;-27
2024/01/11 08:04:49;;;;;;;47.38;20.27;;;;;;;;;;5077813;28;20399;-26
2024/01/11 08:07:14;;;;;;;45.67;19.70;;;;;;;;;;5096541;28;20120;-26
2024/01/11 08:09:44;;;;;;;52.97;21.65;;;;;;;;;;5096035;28;20455;-28
2024/01/11 08:12:10;;;;;;;51.85;23.17;;;;;;;;;;5095669;28;20024;-28
2024/01/11 08:14:35;;;;;;;47.00;20.98;;;;;;;;;;5095827;28;20020;-26
2024/01/11 08:17:01;;;;;;;51.42;19.73;;;;;;;;;;5095805;28;20013;-27
2024/01/11 08:19:27;;;;;;;44.03;19.73;;;;;;;;;;5096147;28;20055;-27
2024/01/11 08:21:56;;;;;;;41.83;18.95;;;;;;;;;;5096066;28;20008;-27
2024/01/11 08:24:21;;;;;;;43.60;19.10;;;;;;;;;;5096023;28;20020;-27
2024/01/11 08:26:46;;;;;;;40.80;17.60;;;;;;;;;;5095741;28;20482;-27
2024/01/11 08:29:12;;;;;;;43.85;19.60;;;;;;;;;;5096274;28;20008;-28
2024/01/11 08:31:38;;;;;;;53.53;20.17;;;;;;;;;;5095617;28;20016;-27
2024/01/11 08:34:04;;;;;;;47.33;20.65;;;;;;;;;;5096203;28;20023;-28
2024/01/11 08:36:35;;;;;;;48.17;20.77;;;;;;;;;;5095825;28;20016;-27
2024/01/11 08:39:02;;;;;;;47.58;20.30;;;;;;;;;;5095539;28;20016;-27
2024/01/11 08:41:27;;;;;;;43.83;19.63;;;;;;;;;;5095641;28;20099;-27
2024/01/11 08:43:53;;;;;;;49.33;19.67;;;;;;;;;;5095849;28;20093;-28
2024/01/11 08:46:25;;;;;;;46.53;20.05;;;;;;;;;;5095702;28;20015;-27
2024/01/11 08:48:50;;;;;;;41.92;18.92;;;;;;;;;;5095748;28;20375;-27
2024/01/11 08:51:16;;;;;;;46.72;19.90;;;;;;;;;;5095781;28;20016;-27
2024/01/11 08:53:41;;;;;;;44.38;18.52;;;;;;;;;;5095258;28;20056;-27
2024/01/11 08:56:06;;;;;;;44.23;18.90;;;;;;;;;;5095605;28;20023;-27
2024/01/11 08:58:31;;;;;;;52.03;20.33;;;;;;;;;;5095781;28;20242;-27
2024/01/11 09:00:56;;;;;;;44.55;18.10;;;;;;;;;;5095364;28;20740;-27
2024/01/11 09:03:22;;;;;;;40.58;17.05;;;;;;;;;;5095451;28;20020;-27
2024/01/11 09:05:47;;;;;;;38.50;17.25;;;;;;;;;;5094872;28;20044;-27
2024/01/11 09:08:12;;;;;;;33.93;15.13;;;;;;;;;;5094997;28;20367;-27
2024/01/11 09:10:37;;;;;;;43.53;16.52;;;;;;;;;;5095203;28;20349;-27
2024/01/11 09:13:02;;;;;;;33.85;15.80;;;;;;;;;;5095089;28;20451;-27
2024/01/11 09:15:28;;;;;;;33.38;15.73;;;;;;;;;;5095122;28;20016;-27
2024/01/11 09:17:53;;;;;;;37.17;16.23;;;;;;;;;;5094946;28;20039;-27
2024/01/11 09:20:18;;;;;;;36.00;16.15;;;;;;;;;;5095415;28;20012;-27
2024/01/11 09:22:45;;;;;;;37.97;16.23;;;;;;;;;;5094937;28;20371;-27
2024/01/11 09:25:10;;;;;;;35.92;15.32;;;;;;;;;;5094235;28;20087;-27
2024/01/11 09:27:35;;;;;;;37.97;14.90;;;;;;;;;;5094726;28;20483;-27
2024/01/11 09:30:00;;;;;;;35.60;15.60;;;;;;;;;;5095293;28;20024;-27
2024/01/11 09:32:26;;;;;;;36.75;15.70;;;;;;;;;;5095616;28;20332;-27
2024/01/11 09:34:51;;;;;;;33.67;15.35;;;;;;;;;;5095068;28;20054;-27
2024/01/11 09:37:16;;;;;;;43.53;16.05;;;;;;;;;;5094463;28;20023;-27
2024/01/11 09:39:42;;;;;;;37.77;15.90;;;;;;;;;;5095009;28;20012;-27
2024/01/11 09:42:09;;;;;;;33.53;14.93;;;;;;;;;;5094626;28;20341;-27
2024/01/11 09:44:34;;;;;;;34.45;14.55;;;;;;;;;;5094322;28;20020;-27
2024/01/11 09:47:01;;;;;;;35.03;14.73;;;;;;;;;;5094807;28;20482;-27
2024/01/11 09:49:27;;;;;;;37.42;15.13;;;;;;;;;;5094517;28;20020;-27
2024/01/11 09:51:56;;;;;;;33.47;14.57;;;;;;;;;;5094413;28;20344;-27
2024/01/11 09:54:22;;;;;;;34.45;14.70;;;;;;;;;;5094277;28;20421;-27
2024/01/11 09:56:49;;;;;;;38.55;14.57;;;;;;;;;;5075922;28;20016;-27
2024/01/11 09:59:16;;;;;;;31.35;14.18;;;;;;;;;;5093934;28;20031;-27
2024/01/11 10:01:41;;;;;;;38.17;15.23;;;;;;;;;;5094586;28;20012;-27
2024/01/11 10:04:07;;;;;;;34.22;15.23;;;;;;;;;;5093854;28;20036;-28
2024/01/11 10:06:33;;;;;;;37.45;15.15;;;;;;;;;;5076162;28;20482;-27
2024/01/11 10:08:58;;;;;;;33.83;14.85;;;;;;;;;;5094351;28;20016;-28
2024/01/11 10:11:23;;;;;;;33.88;14.70;;;;;;;;;;5093836;28;20027;-27
2024/01/11 10:13:55;;;;;;;35.08;15.00;;;;;;;;;;5075653;28;20031;-28
2024/01/11 10:16:21;;;;;;;32.35;15.05;;;;;;;;;;5093860;28;20020;-27
2024/01/11 10:18:46;;;;;;;34.30;15.88;;;;;;;;;;5093822;28;20023;-29
2024/01/11 10:21:11;;;;;;;35.80;15.35;;;;;;;;;;5094089;28;20024;-27
2024/01/11 10:23:38;;;;;;;34.20;15.43;;;;;;;;;;5094302;28;20055;-28
2024/01/11 10:26:03;;;;;;;33.00;15.00;;;;;;;;;;5093626;28;20028;-29
2024/01/11 10:28:29;;;;;;;34.10;15.27;;;;;;;;;;5093839;28;20027;-26
2024/01/11 10:30:54;;;;;;;38.30;17.02;;;;;;;;;;5093641;28;20020;-27
2024/01/11 10:33:21;;;;;;;37.30;15.88;;;;;;;;;;5093391;28;20020;-27
2024/01/11 10:35:46;;;;;;;35.58;16.17;;;;;;;;;;5093850;28;20027;-27
2024/01/11 10:38:11;;;;;;;36.17;16.02;;;;;;;;;;5093250;28;20459;-27
2024/01/11 10:40:36;;;;;;;34.10;16.05;;;;;;;;;;5093789;28;20027;-26
2024/01/11 10:43:02;;;;;;;34.72;15.43;;;;;;;;;;5093439;28;20046;-27
2024/01/11 10:45:28;;;;;;;30.52;15.00;;;;;;;;;;5093401;28;20031;-27
2024/01/11 10:48:01;;;;;;;35.92;15.52;;;;;;;;;;5093882;28;20024;-27
2024/01/11 10:50:26;;;;;;;;;;;;;;;;;;5093671;28;20020;-27
2024/01/11 10:52:54;;;;;;;32.05;14.32;;;;;;;;;;5093583;28;19910;-27
2024/01/11 10:55:21;;;;;;;33.05;15.75;;;;;;;;;;5093675;28;20095;-27
2024/01/11 10:57:48;;;;;;;37.65;16.67;;;;;;;;;;5093607;28;20462;-27
2024/01/11 11:00:13;;;;;;;35.33;15.65;;;;;;;;;;5093584;28;20020;-27
2024/01/11 11:02:39;;;;;;;35.28;16.13;;;;;;;;;;5093080;28;20387;-27
2024/01/11 11:05:05;;;;;;;34.42;15.55;;;;;;;;;;5093363;28;20105;-27
2024/01/11 11:07:31;;;;;;;29.20;14.40;;;;;;;;;;5093117;28;20432;-27
2024/01/11 11:09:57;;;;;;;37.92;15.80;;;;;;;;;;5093021;28;20019;-27
2024/01/11 11:12:22;;;;;;;31.67;15.40;;;;;;;;;;5093303;28;20419;-27
2024/01/11 11:14:49;;;;;;;33.67;15.38;;;;;;;;;;5093063;28;20028;-27
2024/01/11 11:17:14;;;;;;;34.13;14.65;;;;;;;;;;5093396;28;20137;-27
2024/01/11 11:19:40;;;;;;;39.95;15.43;;;;;;;;;;5093574;28;20477;-27
2024/01/11 11:22:05;;;;;;;32.83;14.45;;;;;;;;;;5093166;28;20463;-27
2024/01/11 11:24:30;;;;;;;34.38;14.07;;;;;;;;;;5093236;28;20016;-27
2024/01/11 11:26:57;;;;;;;28.52;14.00;;;;;;;;;;5093267;28;20024;-27
2024/01/11 11:29:22;;;;;;;28.67;14.07;;;;;;;;;;5093188;28;20456;-27
2024/01/11 11:31:53;;;;;;;39.97;14.30;;;;;;;;;;5092910;28;20097;-27
2024/01/11 11:34:19;;;;;;;27.98;13.38;;;;;;;;;;5092800;28;20020;-27
2024/01/11 11:36:46;;;;;;;27.85;13.15;;;;;;;;;;5093429;28;20061;-27
2024/01/11 11:39:14;;;;;;;30.17;13.57;;;;;;;;;;5092074;28;20038;-27
2024/01/11 11:41:40;;;;;;;26.40;14.10;;;;;;;;;;5090744;28;20042;-27
2024/01/11 11:44:05;;;;;;;30.50;13.88;;;;;;;;;;5090485;28;20081;-28
2024/01/11 11:46:31;;;;;;;28.80;13.70;;;;;;;;;;5090976;28;20025;-27
2024/01/11 11:48:56;;;;;;;29.92;13.35;;;;;;;;;;5093597;28;20023;-27
2024/01/11 11:51:22;;;;;;;30.05;14.40;;;;;;;;;;5094295;28;20028;-27
2024/01/11 11:53:48;;;;;;;31.85;15.23;;;;;;;;;;5094311;28;20103;-27
2024/01/11 11:56:16;;;;;;;29.95;14.63;;;;;;;;;;5094999;28;20016;-28
2024/01/11 11:58:42;;;;;;;35.65;14.40;;;;;;;;;;5096571;28;20031;-27
2024/01/11 12:01:08;;;;;;;30.40;14.43;;;;;;;;;;5094839;28;20046;-27
2024/01/11 12:03:37;;;;;;;29.88;15.35;;;;;;;;;;5095711;28;20036;-27
2024/01/11 12:06:05;;;;;;;33.55;15.57;;;;;;;;;;5095369;28;20064;-27
2024/01/11 12:08:30;;;;;;;31.70;15.45;;;;;;;;;;5096192;28;20161;-27
2024/01/11 12:10:57;;;;;;;34.85;16.70;;;;;;;;;;5096281;28;20139;-27
2024/01/11 12:13:22;;;;;;;33.45;15.88;;;;;;;;;;5096547;28;20047;-27
2024/01/11 12:15:47;;;;;;;31.55;14.70;;;;;;;;;;5096663;28;20023;-27
2024/01/11 12:18:13;;;;;;;29.67;15.40;;;;;;;;;;5078001;28;20012;-27
2024/01/11 12:20:38;;;;;;;32.05;16.33;;;;;;;;;;5096101;28;20091;-27
2024/01/11 12:23:04;;;;;;;32.97;15.43;;;;;;;;;;5096221;28;20020;-27
2024/01/11 12:25:29;;;;;;;30.17;14.30;;;;;;;;;;5096271;28;20020;-28
2024/01/11 12:27:55;;;;;;;30.00;14.80;;;;;;;;;;5095877;28;20031;-27
2024/01/11 12:30:24;;;;;;;34.65;14.88;;;;;;;;;;5096038;28;20012;-27
2024/01/11 12:32:53;;;;;;;34.60;15.88;;;;;;;;;;5096270;28;20020;-27
2024/01/11 12:35:18;;;;;;;33.08;15.93;;;;;;;;;;5095779;28;20016;-27
2024/01/11 12:37:58;;;;;;;30.67;15.10;;;;;;;;;;5095743;28;20051;-27
2024/01/11 12:40:24;;;;;;;31.75;14.90;;;;;;;;;;5095714;28;20016;-27
2024/01/11 12:42:49;;;;;;;29.75;15.52;;;;;;;;;;5077311;28;20020;-27
2024/01/11 12:45:15;;;;;;;37.15;14.90;;;;;;;;;;5077387;28;20016;-27
2024/01/11 12:47:40;;;;;;;25.52;13.98;;;;;;;;;;5096093;28;20358;-27
2024/01/11 12:50:07;;;;;;;29.80;14.85;;;;;;;;;;5096338;28;20476;-28
2024/01/11 12:52:32;;;;;;;33.08;15.25;;;;;;;;;;5095720;28;20020;-27
2024/01/11 12:54:58;;;;;;;36.37;15.90;;;;;;;;;;5095298;28;20027;-27
2024/01/11 12:57:23;;;;;;;31.55;15.70;;;;;;;;;;5095883;28;20250;-27
2024/01/11 12:59:48;;;;;;;29.05;14.95;;;;;;;;;;5094585;28;20016;-27
2024/01/11 13:02:15;;;;;;;33.10;15.63;;;;;;;;;;5095246;28;20054;-28
2024/01/11 13:04:40;;;;;;;30.65;14.95;;;;;;;;;;5095395;28;20055;-27
2024/01/11 13:07:06;;;;;;;31.30;15.07;;;;;;;;;;5076972;28;20024;-27
2024/01/11 13:09:32;;;;;;;36.25;15.48;;;;;;;;;;5077400;28;20011;-27
2024/01/11 13:11:58;;;;;;;31.30;14.38;;;;;;;;;;5094882;28;20382;-27
2024/01/11 13:14:23;;;;;;;28.88;13.45;;;;;;;;;;5094950;28;20027;-27
2024/01/11 13:16:48;;;;;;;29.38;14.02;;;;;;;;;;5095107;28;20091;-27
2024/01/11 13:19:14;;;;;;;28.95;14.20;;;;;;;;;;5095209;28;20382;-28
2024/01/11 13:21:39;;;;;;;28.65;13.32;;;;;;;;;;5095179;28;20020;-28
2024/01/11 13:24:05;;;;;;;26.30;14.27;;;;;;;;;;5094801;28;20101;-28
2024/01/11 13:26:30;;;;;;;28.17;14.50;;;;;;;;;;5095278;28;20024;-28
2024/01/11 13:28:55;;;;;;;29.90;14.80;;;;;;;;;;5094662;28;20099;-28
2024/01/11 13:31:20;;;;;;;31.77;14.83;;;;;;;;;;5094646;28;20031;-28
2024/01/11 13:33:46;;;;;;;29.75;14.35;;;;;;;;;;5094442;28;20282;-28
2024/01/11 13:36:11;;;;;;;28.40;14.65;;;;;;;;;;5093737;28;20016;-28
2024/01/11 13:38:36;;;;;;;32.33;14.95;;;;;;;;;;5094464;28;20479;-28
2024/01/11 13:41:01;;;;;;;28.67;13.80;;;;;;;;;;5094352;28;20065;-28
2024/01/11 13:43:26;;;;;;;25.58;13.95;;;;;;;;;;5094227;28;20055;-28
2024/01/11 13:45:52;;;;;;;29.20;13.53;;;;;;;;;;5094939;28;20028;-28
2024/01/11 13:48:17;;;;;;;28.10;13.38;;;;;;;;;;5094365;28;20262;-29
2024/01/11 13:50:42;;;;;;;29.02;14.00;;;;;;;;;;5094442;28;20015;-28
2024/01/11 13:53:07;;;;;;;25.37;13.20;;;;;;;;;;5094733;28;20024;-29
2024/01/11 13:55:41;;;;;;;26.35;13.10;;;;;;;;;;5094260;28;20359;-27
2024/01/11 13:58:07;;;;;;;27.80;13.38;;;;;;;;;;5076087;28;20451;-28
2024/01/11 14:00:32;;;;;;;26.98;13.93;;;;;;;;;;5094403;28;20058;-28
2024/01/11 14:02:57;;;;;;;27.50;13.38;;;;;;;;;;5094064;28;20415;-28
2024/01/11 14:05:23;;;;;;;28.05;14.40;;;;;;;;;;5093907;28;20040;-28
2024/01/11 14:07:54;;;;;;;28.10;14.73;;;;;;;;;;5094038;28;20101;-28
2024/01/11 14:10:19;;;;;;;26.45;12.75;;;;;;;;;;5075585;28;20020;-28